Time;durP1;ratioP1;P1;durP2;ratioP2;P2;SDS_P1;SDS_P2;PMS_P1;PMS_P2;Temp;Humidity;BMP_temperature;BMP_pressure;BME280_temperature;BME280_humidity;BME280_pressure;Samples;Min_cycle;Max_cycle;Signal;HPM_P1;HPM_P2
2022/01/07 00:00:17;;;;;;;2.53;1.38;;;15.60;41.30;;;;;;5056150;28;20499;-37
2022/01/07 00:02:47;;;;;;;3.65;1.75;;;15.60;41.10;;;;;;5056827;28;20024;-37
2022/01/07 00:05:13;;;;;;;3.42;1.75;;;15.70;40.90;;;;;;5057434;28;20025;-36
2022/01/07 00:07:39;;;;;;;3.50;1.50;;;15.80;40.80;;;;;;5056666;28;20021;-37
2022/01/07 00:10:06;;;;;;;5.07;1.70;;;15.80;40.60;;;;;;5057051;28;20472;-37
2022/01/07 00:12:33;;;;;;;3.70;1.77;;;15.90;40.50;;;;;;5057264;28;20021;-37
2022/01/07 00:14:59;;;;;;;3.75;1.67;;;15.90;40.40;;;;;;5057029;28;20021;-38
2022/01/07 00:17:25;;;;;;;2.92;1.50;;;16.00;40.30;;;;;;5040995;28;20365;-39
2022/01/07 00:19:52;;;;;;;4.18;1.63;;;16.00;40.10;;;;;;5059463;28;20020;-38
2022/01/07 00:22:21;;;;;;;3.25;1.40;;;16.10;40.00;;;;;;5059593;28;20025;-39
2022/01/07 00:24:48;;;;;;;3.80;1.60;;;16.10;39.80;;;;;;5058837;28;20029;-40
2022/01/07 00:27:14;;;;;;;3.13;1.60;;;16.20;39.70;;;;;;5040431;28;20017;-38
2022/01/07 00:29:40;;;;;;;4.15;1.50;;;16.30;39.70;;;;;;5058146;28;20111;-39
2022/01/07 00:32:07;;;;;;;3.67;1.50;;;16.30;39.50;;;;;;5038041;28;20009;-39
2022/01/07 00:34:34;;;;;;;4.38;1.70;;;16.30;39.40;;;;;;5059573;28;20487;-38
2022/01/07 00:37:00;;;;;;;3.85;1.50;;;16.40;39.30;;;;;;5060154;28;20036;-37
2022/01/07 00:39:26;;;;;;;5.15;1.67;;;16.40;39.20;;;;;;5059843;28;20044;-38
2022/01/07 00:41:53;;;;;;;2.83;1.38;;;16.40;39.20;;;;;;5059759;28;20028;-35
2022/01/07 00:44:18;;;;;;;3.25;1.58;;;16.40;39.00;;;;;;5059825;28;20388;-37
2022/01/07 00:46:44;;;;;;;2.55;1.23;;;16.50;39.00;;;;;;5043729;28;20045;-36
2022/01/07 00:49:11;;;;;;;2.92;1.65;;;16.50;39.00;;;;;;5061713;28;20025;-37
2022/01/07 00:51:37;;;;;;;2.80;1.20;;;16.50;38.90;;;;;;5043517;28;20100;-37
2022/01/07 00:54:03;;;;;;;4.43;1.90;;;16.50;39.40;;;;;;5041937;28;20017;-36
2022/01/07 00:56:29;;;;;;;3.63;1.60;;;16.60;38.90;;;;;;5058865;28;20052;-37
2022/01/07 00:58:55;;;;;;;3.72;1.70;;;16.60;38.90;;;;;;5058781;28;20046;-38
2022/01/07 01:01:21;;;;;;;2.72;1.40;;;16.60;38.70;;;;;;5059505;28;20041;-37
2022/01/07 01:03:48;;;;;;;3.92;1.60;;;16.60;38.70;;;;;;5058964;28;20349;-36
2022/01/07 01:06:13;;;;;;;4.25;1.70;;;16.70;38.60;;;;;;5058676;28;20105;-36
2022/01/07 01:08:40;;;;;;;5.13;1.70;;;16.70;38.60;;;;;;5056175;28;20147;-36
2022/01/07 01:11:06;;;;;;;3.35;1.67;;;16.70;38.50;;;;;;5055895;28;20520;-36
2022/01/07 01:13:32;;;;;;;3.35;1.30;;;16.70;38.50;;;;;;5038655;28;20384;-37
2022/01/07 01:15:58;;;;;;;2.80;1.40;;;16.70;38.50;;;;;;5037920;28;20013;-37
2022/01/07 01:18:24;;;;;;;3.25;1.40;;;16.80;38.50;;;;;;5055735;28;20025;-36
2022/01/07 01:20:50;;;;;;;4.20;1.73;;;16.80;38.50;;;;;;5055945;28;20028;-36
2022/01/07 01:23:17;;;;;;;2.25;1.33;;;16.80;38.50;;;;;;5056401;28;20015;-36
2022/01/07 01:25:44;;;;;;;2.97;1.35;;;16.80;38.60;;;;;;5056564;28;20028;-37
2022/01/07 01:28:11;;;;;;;3.13;1.60;;;16.80;38.50;;;;;;5056579;28;20103;-37
2022/01/07 01:30:38;;;;;;;2.92;1.42;;;16.70;38.50;;;;;;5056332;28;20070;-36
2022/01/07 01:33:04;;;;;;;5.15;1.67;;;16.80;38.50;;;;;;5056278;28;20025;-36
2022/01/07 01:35:30;;;;;;;1.90;1.25;;;16.80;38.50;;;;;;5055855;28;20017;-37
2022/01/07 01:37:57;;;;;;;3.30;1.50;;;16.90;38.50;;;;;;5056434;28;20032;-37
2022/01/07 01:40:23;;;;;;;3.15;1.60;;;16.90;38.50;;;;;;5056016;28;20451;-37
2022/01/07 01:42:51;;;;;;;3.22;1.45;;;16.90;38.50;;;;;;5055979;28;20052;-38
2022/01/07 01:45:18;;;;;;;2.95;1.45;;;16.90;38.50;;;;;;5056570;28;20016;-40
2022/01/07 01:47:43;;;;;;;4.22;1.40;;;16.90;38.60;;;;;;5056705;28;20021;-39
2022/01/07 01:50:10;;;;;;;3.60;1.48;;;16.90;38.60;;;;;;5038941;28;20036;-39
2022/01/07 01:52:36;;;;;;;4.65;1.50;;;16.90;38.60;;;;;;5057290;28;20020;-39
2022/01/07 01:55:05;;;;;;;3.03;1.60;;;16.90;38.60;;;;;;5056857;28;20056;-42
2022/01/07 01:57:31;;;;;;;4.60;1.38;;;16.90;38.60;;;;;;5039578;28;20028;-40
2022/01/07 02:00:00;;;;;;;3.50;1.38;;;16.90;38.60;;;;;;5056182;28;20013;-39
2022/01/07 02:02:26;;;;;;;3.10;1.48;;;17.00;38.60;;;;;;5056327;28;20017;-42
2022/01/07 02:04:53;;;;;;;3.90;1.40;;;17.00;38.60;;;;;;5056224;28;20088;-40
2022/01/07 02:07:19;;;;;;;3.28;1.33;;;17.00;38.60;;;;;;5055857;28;20021;-39
2022/01/07 02:09:46;;;;;;;3.63;1.50;;;17.00;38.60;;;;;;5056015;28;20092;-41
2022/01/07 02:12:12;;;;;;;3.92;1.75;;;17.00;38.60;;;;;;5055401;28;20048;-40
2022/01/07 02:14:38;;;;;;;3.55;1.75;;;17.00;38.60;;;;;;5055555;28;20017;-40
2022/01/07 02:17:08;;;;;;;3.00;1.60;;;17.00;38.60;;;;;;5038043;28;20060;-39
2022/01/07 02:19:34;;;;;;;4.20;1.52;;;17.00;38.60;;;;;;5056047;28;20017;-40
2022/01/07 02:22:00;;;;;;;2.38;1.30;;;17.00;38.70;;;;;;5056408;28;20014;-37
2022/01/07 02:24:26;;;;;;;3.05;1.40;;;17.10;38.70;;;;;;5056648;28;20037;-36
2022/01/07 02:26:52;;;;;;;3.05;1.60;;;17.10;38.70;;;;;;5057020;28;20028;-37
2022/01/07 02:29:18;;;;;;;2.97;1.73;;;17.10;38.70;;;;;;5039676;28;20009;-37
2022/01/07 02:31:44;;;;;;;4.18;1.52;;;17.10;38.70;;;;;;5058029;28;20017;-37
2022/01/07 02:34:09;;;;;;;3.17;1.52;;;17.10;38.70;;;;;;5040013;28;20101;-38
2022/01/07 02:36:35;;;;;;;3.55;1.40;;;17.10;38.70;;;;;;5057132;28;20025;-37
2022/01/07 02:39:01;;;;;;;4.00;1.55;;;17.10;38.80;;;;;;5039883;28;20025;-38
2022/01/07 02:41:30;;;;;;;5.13;1.30;;;17.10;39.40;;;;;;5057706;28;20028;-40
2022/01/07 02:43:56;;;;;;;3.38;1.50;;;17.10;38.80;;;;;;5057460;28;20045;-40
2022/01/07 02:46:23;;;;;;;3.38;1.52;;;17.20;38.90;;;;;;5059207;28;20009;-40
2022/01/07 02:48:49;;;;;;;3.33;1.20;;;17.20;38.90;;;;;;5024649;28;20017;-39
2022/01/07 02:51:15;;;;;;;3.95;1.58;;;17.10;38.80;;;;;;5059553;28;20024;-40
2022/01/07 02:53:41;;;;;;;2.40;1.33;;;17.20;38.80;;;;;;5041179;28;20013;-39
2022/01/07 02:56:06;;;;;;;2.00;1.23;;;17.20;38.90;;;;;;5040819;28;20132;-40
2022/01/07 02:58:32;;;;;;;4.03;1.50;;;17.20;38.80;;;;;;5058663;28;20043;-39
2022/01/07 03:00:58;;;;;;;4.40;2.00;;;17.20;38.90;;;;;;5037536;28;20017;-40
2022/01/07 03:03:24;;;;;;;2.47;1.40;;;17.20;38.80;;;;;;5037675;28;20434;-40
2022/01/07 03:05:51;;;;;;;3.00;1.30;;;17.20;38.80;;;;;;5054989;28;20375;-41
2022/01/07 03:08:17;;;;;;;2.25;1.42;;;17.30;38.90;;;;;;5055768;28;20019;-40
2022/01/07 03:10:43;;;;;;;2.60;1.23;;;17.20;38.80;;;;;;5055723;28;20021;-40
2022/01/07 03:13:10;;;;;;;2.85;1.50;;;17.30;38.80;;;;;;5056151;28;20024;-44
2022/01/07 03:15:37;;;;;;;2.10;1.30;;;17.30;38.80;;;;;;5059932;28;20037;-42
2022/01/07 03:18:04;;;;;;;3.60;1.30;;;17.30;38.80;;;;;;5060265;28;20021;-43
2022/01/07 03:20:30;;;;;;;2.97;1.40;;;17.30;38.90;;;;;;5059553;28;20021;-45
2022/01/07 03:22:56;;;;;;;2.33;1.30;;;17.30;38.90;;;;;;5058240;28;20020;-42
2022/01/07 03:25:22;;;;;;;2.60;1.30;;;17.30;38.80;;;;;;5040417;28;20017;-43
2022/01/07 03:27:49;;;;;;;1.98;1.30;;;17.30;38.90;;;;;;5039418;28;20063;-41
2022/01/07 03:30:16;;;;;;;2.90;1.30;;;17.30;38.90;;;;;;5056420;28;20017;-41
2022/01/07 03:32:42;;;;;;;2.95;1.40;;;17.20;39.00;;;;;;5055841;28;20013;-41
2022/01/07 03:35:11;;;;;;;2.58;1.27;;;17.20;39.10;;;;;;5056185;28;20075;-42
2022/01/07 03:37:40;;;;;;;3.33;1.50;;;17.20;39.30;;;;;;5055017;28;20013;-39
2022/01/07 03:40:07;;;;;;;3.55;1.40;;;17.10;39.30;;;;;;5054376;28;20025;-40
2022/01/07 03:42:33;;;;;;;2.72;1.33;;;17.10;39.40;;;;;;5035908;28;20013;-36
2022/01/07 03:44:59;;;;;;;2.53;1.25;;;17.10;39.60;;;;;;5053334;28;20028;-36
2022/01/07 03:47:27;;;;;;;3.67;1.27;;;17.10;39.70;;;;;;5053624;28;20020;-36
2022/01/07 03:49:52;;;;;;;1.95;1.20;;;17.00;39.80;;;;;;5053954;28;20063;-37
2022/01/07 03:52:19;;;;;;;2.90;1.33;;;16.90;39.90;;;;;;5053407;28;20021;-37
2022/01/07 03:54:45;;;;;;;3.63;1.45;;;16.90;40.10;;;;;;5053375;28;20116;-37
2022/01/07 03:57:12;;;;;;;3.00;1.33;;;16.80;40.20;;;;;;5053719;28;20029;-36
2022/01/07 03:59:39;;;;;;;3.05;1.40;;;16.80;40.40;;;;;;5054622;28;20021;-37
2022/01/07 04:02:05;;;;;;;2.47;1.50;;;16.80;40.50;;;;;;5054712;28;20018;-36
2022/01/07 04:04:32;;;;;;;2.67;1.40;;;16.70;40.40;;;;;;5053623;28;20021;-36
2022/01/07 04:06:58;;;;;;;2.92;1.30;;;16.70;40.60;;;;;;5053257;28;20024;-37
2022/01/07 04:09:24;;;;;;;2.60;1.60;;;16.70;40.70;;;;;;5039147;28;20527;-36
2022/01/07 04:11:52;;;;;;;2.25;1.25;;;16.60;40.80;;;;;;5056889;28;20017;-37
2022/01/07 04:14:18;;;;;;;3.25;1.50;;;16.50;40.90;;;;;;5056867;28;20013;-36
2022/01/07 04:16:44;;;;;;;3.08;1.27;;;16.40;41.00;;;;;;5056621;28;20142;-36
2022/01/07 04:19:11;;;;;;;2.47;1.40;;;16.40;41.20;;;;;;5057031;28;20075;-37
2022/01/07 04:21:38;;;;;;;2.65;1.52;;;16.40;41.40;;;;;;5056564;28;20070;-36
2022/01/07 04:24:04;;;;;;;3.85;1.73;;;16.30;41.40;;;;;;5056459;28;20021;-37
2022/01/07 04:26:31;;;;;;;3.28;1.35;;;16.30;41.60;;;;;;5056537;28;20531;-36
2022/01/07 04:28:57;;;;;;;4.00;1.70;;;16.30;41.70;;;;;;5056692;28;20029;-36
2022/01/07 04:31:24;;;;;;;2.97;1.65;;;16.20;41.80;;;;;;5056434;28;20092;-36
2022/01/07 04:33:50;;;;;;;3.55;1.30;;;16.20;41.90;;;;;;5056080;28;20020;-36
2022/01/07 04:36:17;;;;;;;3.00;1.23;;;16.10;41.90;;;;;;5056129;28;20025;-36
2022/01/07 04:38:44;;;;;;;3.28;1.40;;;16.10;42.10;;;;;;5056295;28;20021;-36
2022/01/07 04:41:10;;;;;;;3.40;1.67;;;16.10;42.20;;;;;;5056232;28;20009;-36
2022/01/07 04:43:36;;;;;;;2.67;1.30;;;16.10;42.30;;;;;;5056744;28;20478;-36
2022/01/07 04:46:01;;;;;;;2.92;1.40;;;16.00;42.40;;;;;;5038783;28;20021;-37
2022/01/07 04:48:27;;;;;;;2.83;1.50;;;16.00;42.40;;;;;;5056733;28;20025;-36
2022/01/07 04:50:53;;;;;;;2.78;1.33;;;16.00;42.50;;;;;;5056336;28;20475;-36
2022/01/07 04:53:21;;;;;;;2.05;1.55;;;15.90;42.50;;;;;;5037966;28;20013;-36
2022/01/07 04:55:47;;;;;;;3.45;1.33;;;15.90;42.70;;;;;;5055519;28;20495;-36
2022/01/07 04:58:13;;;;;;;2.83;1.30;;;15.90;42.70;;;;;;5056314;28;20031;-36
2022/01/07 05:00:40;;;;;;;3.35;1.60;;;15.90;42.80;;;;;;5057348;28;20100;-36
2022/01/07 05:03:06;;;;;;;2.42;1.40;;;15.80;42.90;;;;;;5057034;28;20085;-38
2022/01/07 05:05:32;;;;;;;2.70;1.38;;;15.80;43.00;;;;;;5039398;28;20017;-38
2022/01/07 05:07:58;;;;;;;2.35;1.40;;;15.80;43.00;;;;;;5021769;28;20427;-38
2022/01/07 05:10:24;;;;;;;2.85;1.55;;;15.80;43.20;;;;;;5038503;28;20021;-38
2022/01/07 05:12:53;;;;;;;3.15;1.27;;;15.80;43.30;;;;;;5055739;28;20028;-38
2022/01/07 05:15:19;;;;;;;3.08;1.42;;;15.70;43.50;;;;;;5056020;28;20108;-39
2022/01/07 05:17:45;;;;;;;2.10;1.30;;;15.70;43.60;;;;;;5055436;28;20035;-38
2022/01/07 05:20:12;;;;;;;2.88;1.40;;;15.60;43.70;;;;;;5054200;28;20100;-38
2022/01/07 05:22:38;;;;;;;4.65;1.50;;;15.60;44.00;;;;;;5055633;28;20481;-39
2022/01/07 05:25:05;;;;;;;2.38;1.50;;;15.50;43.80;;;;;;5055833;28;20104;-41
2022/01/07 05:27:31;;;;;;;3.90;1.70;;;15.50;43.90;;;;;;5055484;28;20017;-39
2022/01/07 05:29:57;;;;;;;2.72;1.40;;;15.50;43.90;;;;;;5055991;28;20020;-40
2022/01/07 05:32:22;;;;;;;2.40;1.30;;;15.50;44.00;;;;;;5038386;28;20487;-40
2022/01/07 05:34:49;;;;;;;2.80;1.40;;;15.40;44.00;;;;;;5055622;28;20056;-40
2022/01/07 05:37:16;;;;;;;3.10;1.52;;;15.40;44.10;;;;;;5055462;28;20036;-39
2022/01/07 05:39:42;;;;;;;3.53;1.70;;;15.40;44.10;;;;;;5054886;28;20483;-39
2022/01/07 05:42:08;;;;;;;3.00;1.50;;;15.40;44.20;;;;;;5055357;28;20052;-41
2022/01/07 05:44:35;;;;;;;3.15;1.35;;;15.40;44.40;;;;;;5037515;28;20491;-40
2022/01/07 05:47:01;;;;;;;2.58;1.30;;;15.30;44.40;;;;;;5055776;28;20086;-41
2022/01/07 05:49:28;;;;;;;3.10;1.63;;;15.30;44.40;;;;;;5055692;28;20115;-40
2022/01/07 05:51:54;;;;;;;3.90;1.63;;;15.30;44.50;;;;;;5055723;28;20013;-40
2022/01/07 05:54:21;;;;;;;2.80;1.30;;;15.30;44.60;;;;;;5055536;28;20023;-41
2022/01/07 05:56:47;;;;;;;3.63;1.50;;;15.20;44.60;;;;;;5054795;28;20060;-39
2022/01/07 05:59:14;;;;;;;4.20;1.63;;;15.20;44.80;;;;;;5054956;28;20018;-39
2022/01/07 06:01:40;;;;;;;2.58;1.30;;;15.20;44.80;;;;;;5055012;28;20024;-35
2022/01/07 06:04:06;;;;;;;2.95;1.45;;;15.20;44.90;;;;;;5054686;28;20024;-35
2022/01/07 06:06:33;;;;;;;3.85;1.65;;;15.20;44.90;;;;;;5054967;28;20017;-36
2022/01/07 06:08:59;;;;;;;2.35;1.40;;;15.20;45.00;;;;;;5054763;28;20039;-36
2022/01/07 06:11:24;;;;;;;2.05;1.25;;;15.10;45.00;;;;;;5054726;28;20017;-36
2022/01/07 06:13:50;;;;;;;3.15;1.33;;;15.10;45.10;;;;;;5054633;28;20013;-36
2022/01/07 06:16:17;;;;;;;2.85;1.30;;;15.10;45.10;;;;;;5054429;28;20055;-36
2022/01/07 06:18:58;;;;;;;4.10;1.90;;;15.10;45.20;;;;;;5055004;28;20021;-36
2022/01/07 06:21:25;;;;;;;2.75;1.30;;;15.10;45.30;;;;;;5054591;28;20464;-36
2022/01/07 06:23:51;;;;;;;3.17;1.70;;;15.10;45.30;;;;;;5054304;28;20017;-38
2022/01/07 06:26:17;;;;;;;1.95;1.23;;;15.10;45.30;;;;;;5036134;28;20017;-38
2022/01/07 06:28:43;;;;;;;2.67;1.42;;;15.10;45.40;;;;;;5054052;28;20025;-38
2022/01/07 06:31:09;;;;;;;2.72;1.40;;;15.00;45.40;;;;;;5053905;28;20013;-38
2022/01/07 06:33:35;;;;;;;2.55;1.13;;;15.00;45.50;;;;;;5036298;28;20017;-38
2022/01/07 06:36:01;;;;;;;2.67;1.42;;;15.00;45.50;;;;;;5036006;28;20475;-38
2022/01/07 06:38:27;;;;;;;2.67;1.50;;;15.00;45.60;;;;;;5036457;28;20128;-38
2022/01/07 06:40:54;;;;;;;2.17;1.20;;;15.00;45.70;;;;;;5054005;28;20085;-38
2022/01/07 06:43:20;;;;;;;3.22;1.65;;;14.90;45.60;;;;;;5054141;28;20062;-41
2022/01/07 06:45:47;;;;;;;3.25;1.48;;;14.90;45.60;;;;;;5036520;28;20013;-39
2022/01/07 06:48:13;;;;;;;4.03;1.30;;;14.90;45.70;;;;;;5036638;28;20019;-39
2022/01/07 06:50:41;;;;;;;2.20;1.30;;;14.90;45.70;;;;;;5035839;28;20047;-39
2022/01/07 06:53:07;;;;;;;3.13;1.48;;;14.90;45.80;;;;;;5053375;28;20079;-39
2022/01/07 06:55:33;;;;;;;2.28;1.55;;;14.90;45.80;;;;;;5019833;28;20121;-39
2022/01/07 06:57:59;;;;;;;2.97;1.60;;;14.90;45.90;;;;;;5012711;28;20100;-39
2022/01/07 07:00:25;;;;;;;4.45;1.50;;;14.80;45.90;;;;;;5013917;28;20014;-39
2022/01/07 07:02:51;;;;;;;1.80;1.20;;;14.80;45.90;;;;;;5012909;28;20381;-40
2022/01/07 07:05:17;;;;;;;2.15;1.30;;;14.90;46.00;;;;;;4996398;28;20014;-41
2022/01/07 07:07:43;;;;;;;3.13;1.30;;;14.80;46.00;;;;;;5013984;28;20021;-41
2022/01/07 07:10:09;;;;;;;3.45;1.40;;;14.90;46.50;;;;;;5014065;28;20037;-42
2022/01/07 07:12:35;;;;;;;4.13;1.60;;;14.80;46.10;;;;;;5012680;28;20539;-40
2022/01/07 07:15:01;;;;;;;3.38;1.30;;;14.90;46.10;;;;;;5015206;28;20068;-43
2022/01/07 07:17:28;;;;;;;3.70;1.80;;;14.80;46.10;;;;;;5017787;28;20025;-43
2022/01/07 07:19:54;;;;;;;4.00;1.73;;;14.90;46.20;;;;;;5018050;28;20468;-43
2022/01/07 07:22:20;;;;;;;4.18;1.30;;;14.80;46.20;;;;;;5018221;28;20117;-41
2022/01/07 07:24:46;;;;;;;3.03;1.50;;;14.80;46.20;;;;;;5017273;28;20014;-41
2022/01/07 07:27:12;;;;;;;2.83;1.50;;;14.80;46.30;;;;;;5017639;28;20038;-41
2022/01/07 07:29:39;;;;;;;3.08;1.30;;;14.80;46.30;;;;;;5017111;28;20493;-41
2022/01/07 07:32:08;;;;;;;1.98;1.30;;;14.80;46.40;;;;;;5012704;28;20424;-41
2022/01/07 07:37:07;;;;;;;2.95;1.40;;;14.80;46.40;;;;;;5014739;28;20041;-41
2022/01/07 07:39:33;;;;;;;3.53;1.40;;;14.70;46.30;;;;;;5014349;28;20076;-41
2022/01/07 07:41:59;;;;;;;4.97;1.42;;;14.70;46.40;;;;;;5013183;28;20026;-37
2022/01/07 07:44:25;;;;;;;2.70;1.33;;;14.80;46.40;;;;;;5015153;28;20017;-36
2022/01/07 07:46:51;;;;;;;3.03;1.48;;;14.80;46.50;;;;;;5012501;28;20547;-36
2022/01/07 07:49:18;;;;;;;3.42;1.25;;;14.70;46.50;;;;;;5012666;28;20492;-36
2022/01/07 07:51:44;;;;;;;2.65;1.33;;;14.80;46.50;;;;;;5013516;28;20412;-36
2022/01/07 07:54:10;;;;;;;4.22;1.70;;;14.70;46.40;;;;;;4998403;28;20025;-36
2022/01/07 07:56:36;;;;;;;4.68;1.55;;;14.80;46.50;;;;;;5035710;28;20072;-36
2022/01/07 07:59:03;;;;;;;2.40;1.35;;;14.70;46.40;;;;;;5053508;28;20487;-36
2022/01/07 08:01:28;;;;;;;3.42;1.40;;;14.70;46.50;;;;;;5053098;28;20104;-36
2022/01/07 08:03:54;;;;;;;3.50;1.50;;;14.70;46.60;;;;;;5052977;28;20426;-36
2022/01/07 08:06:20;;;;;;;3.17;1.33;;;14.70;46.60;;;;;;5052819;28;20059;-37
2022/01/07 08:08:46;;;;;;;3.90;1.50;;;14.70;46.70;;;;;;5052490;28;20017;-36
2022/01/07 08:11:13;;;;;;;2.67;1.45;;;14.70;46.90;;;;;;5052624;28;20005;-36
2022/01/07 08:16:23;;;;;;;2.40;1.45;;;14.70;46.90;;;;;;5054571;28;20083;-35
2022/01/07 08:18:53;;;;;;;3.83;1.30;;;14.70;47.00;;;;;;5036717;28;20059;-35
2022/01/07 08:21:20;;;;;;;3.25;1.40;;;14.70;47.20;;;;;;5054623;28;20013;-36
2022/01/07 08:23:46;;;;;;;4.35;1.50;;;14.70;47.20;;;;;;5054434;28;20106;-36
2022/01/07 08:26:14;;;;;;;3.90;1.70;;;14.70;47.40;;;;;;5052752;28;20017;-36
2022/01/07 08:28:45;;;;;;;3.47;1.45;;;14.60;47.30;;;;;;5052805;28;20021;-35
2022/01/07 08:36:24;;;;;;;3.47;1.50;;;14.60;47.50;;;;;;5053207;28;20117;-35
2022/01/07 08:38:52;;;;;;;5.50;1.70;;;14.70;47.60;;;;;;5053197;28;20005;-36
2022/01/07 08:41:18;;;;;;;3.38;1.30;;;14.70;47.60;;;;;;5053484;28;20009;-38
2022/01/07 08:43:45;;;;;;;4.65;1.60;;;14.60;47.50;;;;;;5053007;28;20029;-37
2022/01/07 08:46:10;;;;;;;3.45;1.60;;;14.60;47.60;;;;;;5034759;28;20032;-37
2022/01/07 08:48:37;;;;;;;2.78;1.40;;;14.60;47.70;;;;;;5052461;28;20013;-37
2022/01/07 08:51:04;;;;;;;3.67;1.70;;;14.60;47.70;;;;;;5052650;28;20035;-37
2022/01/07 08:53:30;;;;;;;4.30;1.50;;;14.60;47.60;;;;;;5053044;28;20029;-38
2022/01/07 08:55:56;;;;;;;5.03;1.58;;;14.60;47.70;;;;;;5055767;28;20048;-38
2022/01/07 08:58:22;;;;;;;3.15;1.50;;;14.60;47.80;;;;;;5037956;28;20025;-38
2022/01/07 09:00:48;;;;;;;3.03;1.40;;;14.60;47.80;;;;;;5059698;28;20479;-38
2022/01/07 09:03:14;;;;;;;3.65;1.48;;;14.60;47.80;;;;;;5061874;28;20017;-39
2022/01/07 09:05:40;;;;;;;3.47;1.40;;;14.60;47.80;;;;;;5062961;28;20487;-39
2022/01/07 09:08:09;;;;;;;2.85;1.50;;;14.70;47.80;;;;;;5062235;28;20024;-40
2022/01/07 09:10:35;;;;;;;4.75;1.70;;;14.60;47.90;;;;;;5045819;28;20028;-40
2022/01/07 09:13:01;;;;;;;3.55;1.77;;;14.60;47.90;;;;;;5061617;28;20041;-40
2022/01/07 09:15:26;;;;;;;5.15;1.60;;;14.60;47.70;;;;;;5044312;28;20422;-39
2022/01/07 09:17:53;;;;;;;3.60;1.60;;;14.60;47.80;;;;;;5044949;28;20074;-40
2022/01/07 09:20:20;;;;;;;3.05;1.67;;;14.70;47.80;;;;;;5062603;28;20020;-40
2022/01/07 09:22:47;;;;;;;6.35;1.52;;;14.70;47.70;;;;;;5061695;28;20092;-36
2022/01/07 09:25:13;;;;;;;3.88;1.35;;;14.70;47.60;;;;;;5062097;28;20017;-37
2022/01/07 09:27:40;;;;;;;4.30;1.58;;;14.90;47.40;;;;;;5043926;28;20036;-36
2022/01/07 09:30:07;;;;;;;4.93;1.60;;;14.90;47.10;;;;;;5060959;28;20024;-37
2022/01/07 09:32:33;;;;;;;5.00;1.38;;;15.00;46.90;;;;;;5042579;28;20028;-36
2022/01/07 09:34:59;;;;;;;3.45;1.52;;;15.10;46.80;;;;;;5041866;28;20028;-36
2022/01/07 09:37:25;;;;;;;3.45;1.48;;;15.20;46.50;;;;;;5060024;28;20037;-36
2022/01/07 09:39:51;;;;;;;3.50;1.55;;;15.10;46.50;;;;;;5059726;28;20472;-36
2022/01/07 09:42:17;;;;;;;5.00;1.50;;;15.20;46.50;;;;;;5041207;28;20013;-37
2022/01/07 09:44:45;;;;;;;3.72;1.60;;;15.20;46.50;;;;;;5057089;28;20426;-37
2022/01/07 09:47:12;;;;;;;3.42;1.40;;;15.10;46.40;;;;;;5056241;28;20060;-38
2022/01/07 09:49:38;;;;;;;2.90;1.45;;;15.30;46.40;;;;;;5038758;28;20020;-38
2022/01/07 09:52:05;;;;;;;4.38;1.73;;;15.20;46.30;;;;;;5056559;28;20013;-38
2022/01/07 09:54:36;;;;;;;4.28;1.60;;;15.20;46.20;;;;;;5039352;28;20037;-37
2022/01/07 09:57:02;;;;;;;;;;;15.30;46.30;;;;;;5039454;28;20492;-37
2022/01/07 09:59:34;;;;;;;4.05;1.40;;;15.20;46.30;;;;;;5038299;28;19905;-38
2022/01/07 10:02:07;;;;;;;2.55;1.30;;;15.30;46.30;;;;;;5055627;28;20009;-39
2022/01/07 10:04:38;;;;;;;4.30;1.75;;;15.20;46.20;;;;;;5055912;28;20009;-40
2022/01/07 10:07:22;;;;;;;;;;;15.30;46.40;;;;;;5056215;28;20025;-38
2022/01/07 10:10:07;;;;;;;3.30;1.70;;;15.30;46.30;;;;;;5055778;28;19901;-38
2022/01/07 10:13:06;;;;;;;3.28;1.30;;;15.30;46.30;;;;;;5056265;28;20016;-38
2022/01/07 10:15:32;;;;;;;3.55;1.40;;;15.40;46.30;;;;;;5056773;28;20017;-38
2022/01/07 10:18:07;;;;;;;3.42;1.50;;;15.40;46.10;;;;;;5037567;28;20487;-38
2022/01/07 10:20:39;;;;;;;3.08;1.60;;;15.50;45.80;;;;;;5054118;28;20075;-38
2022/01/07 10:23:13;;;;;;;3.05;1.50;;;15.60;45.80;;;;;;5054785;28;20048;-41
2022/01/07 10:25:44;;;;;;;1.80;1.27;;;15.60;45.60;;;;;;5054607;28;20096;-40
2022/01/07 10:28:13;;;;;;;2.58;1.40;;;15.60;45.60;;;;;;5054495;28;20024;-40
2022/01/07 10:30:39;;;;;;;2.72;1.52;;;15.60;45.40;;;;;;5056283;28;20017;-41
2022/01/07 10:33:35;;;;;;;2.88;1.50;;;15.60;45.50;;;;;;5039847;28;20013;-42
2022/01/07 10:36:07;;;;;;;3.42;1.60;;;15.50;45.70;;;;;;5037014;28;20091;-44
2022/01/07 10:38:54;;;;;;;2.33;1.42;;;15.50;45.80;;;;;;5057411;28;20061;-45
2022/01/07 10:41:21;;;;;;;1.85;1.40;;;15.40;46.00;;;;;;5057370;28;20020;-36
2022/01/07 10:43:47;;;;;;;2.60;1.20;;;15.40;46.10;;;;;;5053880;28;20053;-36
2022/01/07 10:46:31;;;;;;;3.03;1.40;;;15.40;46.20;;;;;;5054055;28;20028;-35
2022/01/07 10:48:58;;;;;;;2.75;1.35;;;15.30;46.30;;;;;;5053777;28;20013;-35
2022/01/07 10:51:31;;;;;;;2.83;1.70;;;15.40;46.30;;;;;;5054499;28;20367;-36
2022/01/07 10:53:58;;;;;;;1.90;1.20;;;15.40;46.10;;;;;;5054645;28;20016;-37
2022/01/07 10:56:51;;;;;;;2.90;1.50;;;15.40;45.90;;;;;;5053896;28;20048;-37
2022/01/07 10:59:18;;;;;;;2.78;1.30;;;15.50;45.90;;;;;;5053606;28;20394;-36
2022/01/07 11:01:51;;;;;;;3.97;1.50;;;15.50;45.80;;;;;;5053463;28;20478;-36
2022/01/07 11:04:21;;;;;;;3.55;1.88;;;15.60;45.60;;;;;;5035586;28;20558;-35
2022/01/07 11:06:49;;;;;;;3.38;1.50;;;15.70;45.50;;;;;;5053447;28;20108;-36
2022/01/07 11:09:18;;;;;;;3.03;1.52;;;15.70;45.40;;;;;;5053488;28;20032;-35
2022/01/07 11:11:45;;;;;;;3.13;1.40;;;15.80;45.30;;;;;;5053296;28;20441;-36
2022/01/07 11:14:12;;;;;;;2.63;1.15;;;15.90;45.10;;;;;;5054229;28;20147;-35
2022/01/07 11:16:39;;;;;;;2.22;1.38;;;15.90;45.00;;;;;;5053438;28;20017;-35
2022/01/07 11:19:06;;;;;;;4.32;1.33;;;16.00;45.50;;;;;;5053769;28;20062;-35
2022/01/07 11:21:32;;;;;;;3.58;1.38;;;16.10;44.80;;;;;;5053499;28;20024;-37
2022/01/07 11:23:57;;;;;;;2.88;1.30;;;16.10;44.60;;;;;;5053639;28;20010;-37
2022/01/07 11:26:23;;;;;;;3.08;1.60;;;16.20;44.50;;;;;;5035255;28;20456;-37
2022/01/07 11:28:59;;;;;;;3.92;1.70;;;16.20;44.40;;;;;;5035527;28;20029;-37
2022/01/07 11:31:26;;;;;;;2.53;1.27;;;16.30;44.40;;;;;;5053477;28;20183;-37
2022/01/07 11:34:18;;;;;;;2.88;1.27;;;16.30;44.20;;;;;;5053289;28;20378;-37
2022/01/07 11:36:44;;;;;;;2.92;1.50;;;16.40;44.10;;;;;;5052795;28;20056;-37
2022/01/07 11:39:10;;;;;;;3.42;1.13;;;16.40;44.00;;;;;;5053281;28;20459;-37
2022/01/07 11:41:55;;;;;;;2.55;1.20;;;16.40;43.90;;;;;;5053310;28;20016;-39
2022/01/07 11:44:28;;;;;;;2.55;1.50;;;16.50;43.90;;;;;;5053316;28;20021;-38
2022/01/07 11:47:24;;;;;;;3.15;1.40;;;16.50;43.80;;;;;;5053243;28;20013;-38
2022/01/07 11:50:06;;;;;;;3.67;1.77;;;16.60;43.70;;;;;;5051801;28;20061;-40
2022/01/07 11:52:34;;;;;;;2.83;1.52;;;16.60;43.60;;;;;;5035349;28;20088;-38
2022/01/07 11:55:26;;;;;;;2.67;1.45;;;16.60;43.60;;;;;;5036076;28;20040;-38
2022/01/07 11:58:11;;;;;;;2.90;1.30;;;16.60;43.50;;;;;;5053406;28;20033;-38
2022/01/07 12:00:59;;;;;;;3.25;1.30;;;16.70;43.50;;;;;;5053192;28;20096;-49
2022/01/07 12:03:36;;;;;;;2.83;1.35;;;16.70;43.50;;;;;;5004504;28;20091;-39
2022/01/07 12:06:31;;;;;;;3.97;1.30;;;16.70;43.50;;;;;;5053228;28;20547;-41
2022/01/07 12:09:06;;;;;;;3.58;1.58;;;16.70;43.40;;;;;;5041945;28;20564;-40
2022/01/07 12:11:39;;;;;;;3.08;1.50;;;16.70;43.40;;;;;;5053376;28;20549;-41
2022/01/07 12:14:14;;;;;;;3.83;1.55;;;16.80;43.30;;;;;;5053503;28;20019;-42
2022/01/07 12:16:41;;;;;;;3.53;1.65;;;16.80;43.20;;;;;;5035810;28;20009;-40
2022/01/07 12:19:20;;;;;;;3.53;1.35;;;16.80;43.30;;;;;;5035327;28;20424;-40
2022/01/07 12:21:50;;;;;;;4.25;1.60;;;16.90;43.20;;;;;;5053436;28;20483;-40
2022/01/07 12:24:20;;;;;;;2.40;1.40;;;16.90;43.10;;;;;;5035224;28;20086;-40
2022/01/07 12:26:46;;;;;;;2.35;1.30;;;16.90;43.00;;;;;;5035770;28;20486;-42
2022/01/07 12:29:21;;;;;;;3.30;1.45;;;16.90;43.10;;;;;;5021070;28;20013;-39
2022/01/07 12:31:51;;;;;;;2.22;1.38;;;16.90;43.10;;;;;;5057175;28;20092;-40
2022/01/07 12:34:30;;;;;;;5.35;1.60;;;16.90;43.10;;;;;;5056656;28;20472;-40
2022/01/07 12:37:00;;;;;;;2.65;1.33;;;17.00;43.10;;;;;;5056921;28;20025;-40
2022/01/07 12:39:28;;;;;;;3.40;1.60;;;17.00;43.10;;;;;;5039320;28;20039;-40
2022/01/07 12:41:54;;;;;;;2.92;1.45;;;17.00;43.10;;;;;;5056805;28;20009;-42
2022/01/07 12:44:20;;;;;;;2.72;1.50;;;17.00;43.10;;;;;;5056810;28;20025;-44
2022/01/07 12:46:54;;;;;;;2.92;1.52;;;17.00;43.10;;;;;;5040512;28;20480;-42
2022/01/07 12:49:21;;;;;;;3.17;1.40;;;17.00;43.10;;;;;;5058802;28;20017;-48
2022/01/07 12:52:25;;;;;;;3.72;1.60;;;17.00;43.20;;;;;;5040818;28;20017;-42
2022/01/07 12:55:11;;;;;;;3.72;1.50;;;17.00;43.20;;;;;;5057165;28;20578;-43
2022/01/07 12:57:46;;;;;;;2.97;1.30;;;17.00;43.00;;;;;;5056794;28;20044;-41
2022/01/07 13:00:19;;;;;;;2.58;1.50;;;17.00;43.00;;;;;;5056597;28;20096;-42
2022/01/07 13:02:50;;;;;;;3.35;1.50;;;17.10;43.10;;;;;;5060210;28;20064;-36